Xiamen Gaoqi International Airport
ZSAM : now visible

Airfield :











YOU CAN JOIN US ON...

 
LOGIN :

Register | Disclaimer

   EN    FR    IT 

 









Legend :    VFR   Marginal VFR   IFR   Intensive IFR   Very Intensive IFR
Visi :
Ceiling :
>= 8 km
>= 3000ft
5 to 8 km
1000 to 3000 ft
1500m to 5 km
500 to 1000 ft
800 to 1500m
200 to 500 ft
< 800m
< 200 ft
Symbols :   Thunderstorms  Fog  Heavy snow  Heavy precipitations  Wind > 20 kt







- Airport Elevation : 59 ft
- IATA code : XMN


ZSAM - Xiamen Gaoqi International

CURRENT METAR :
  • 210600Z VRB01MPS 7000 BKN011 OVC030 18/16 Q1018 NOSIG

EXPIRED METARs :
  • 210500Z 04002MPS 350V070 6000 BKN011 OVC030 17/16 Q1020 NOSIG
  • 210400Z 09003MPS 060V120 5000 BR BKN011 OVC030 17/15 Q1020 BECMG TL0530 BKN015 OVC030

TAF TAF ZSAM
Valid from the 21 at 06:00 until the 22 at 06:00 UTC


210311Z 2106/2206 08004MPS 5000 BR BKN026 TX20/2106Z TN15/2121Z
BECMG 2115/2116 3500 -RA BR BKN010 OVC023
BECMG 2119/2120 RA BKN008 OVC020
BECMG 2122/2123 6000 NSW BKN040
ZSHA FIR / Asia



MET'MAP, your aeronautical weather chart ! - Copyright ORBIFLY December 2007 - Disclaimer

ORBIFLY MET'MAP TEAM :

Programming & Development : Alexandra Zaïnal
Concept & Development : Baudouin d'Aumeries
Co-Development & Prog : Marc-Olivier Méhu
Technical & hardware support : Manuel Goepfert

Contact : metmap@orbifly.com




SOURCES & CREDITS :

   NOAA       Earth
Advisory